Franktown, Colorado
Current Conditions -  °F | °C
As of 10:11 PM on Tuesday 25 Nov 2014 (Local Time) from KAPA Reporting Station
Overcast Overcast  
Wind Chill: 21°   Ceiling: 800
Heat Index: 31°   Visibility: 10mi
Dew Point: 29°   Wind: 14mph
Humidity: 92%   Direction: 50°NE
Pressure: 30.08"   Gusts: 22mph
Location:  39.39°N, 104.75°W
Report Text: KAPA 260511Z 05012G19KT 10SM BKN008 OVC080 M01/M02 A3008 RMK AO2 T10061017
Loading
Personal Weather Stations






























Interactive Weather Map New forecast layout! Learn more

10-Day Weather Forecast

Advertisements
Track Severe Weather on mobile